Sharon, ND

1:00 AM CDT on August 28, 2014 (GMT -0500)
Grand Forks Air Force Base | Change Station
CLOSE
Current Station
Airport
Location: Grand Forks AFB,
Elevation: 912 ft
Nearby Weather Stations

Elev 912 ft 47.96 °N, 97.40 °W | Updated 2 minutes ago

Clear
Clear
60 °F
Feels Like 60 °F
N
8
Wind Variable Wind from South

Today
High -- | Low -- °F
--% Chance of Precip.
Yesterday
High -- | Low -- °F
Precip. -- in
6:44 AM 8:19 PM
Waxing Crescent, 6% visible
Pressure 30.05 in
Visibility 10.0 miles
Clouds Clear
Dew Point 60 °F
Humidity 99%
Rainfall 0.00 in
Snow Depth Not available.
UV 0 out of 12
Pollen 10.00 out of 12
Air Quality Not available.
Flu Activity Not available.
METAR KRDR 280558Z AUTO 18007KT 10SM CLR 15/15 A3004 RMK AO2 SLP176 T01540153 10219 20152 402330078 57010

More Conditions Fewer Conditions

Pressure 30.05 in
Visibility 10.0 miles
Clouds Clear
Dew Point 60 °F
Humidity 99%
Rainfall 0.00 in
Snow Depth Not available.
UV 0 out of 12
Pollen 10.00 out of 12
Air Quality Not available.
Flu Activity Not available.
METAR KRDR 280558Z AUTO 18007KT 10SM CLR 15/15 A3004 RMK AO2 SLP176 T01540153 10219 20152 402330078 57010

More Conditions Fewer Conditions

10-Day Weather Forecast

Almanac

Astronomy

Aug. 28, 2014 Rise Set
Actual Time 6:44 AM CDT 8:19 PM CDT
Civil Twilight 6:12 AM CDT 8:52 PM CDT
Nautical Twilight 5:33 AM CDT 9:31 PM CDT
Astronomical Twilight 4:50 AM CDT 10:13 PM CDT
Moon 9:54 AM CDT 9:27 PM CDT
Length of Visible Light 14h 39m
Length of Day
13h 34m
Tomorrow will be 3m 16s shorter.
Waxing Crescent, 6% of the Moon is Illuminated
Today
Waxing Crescent
Sep 2
First Quarter
Sep 8
Full
Sep 15
Last Quarter
Sep 24
New

Today's Extremes

State Highs State Lows

Community

WunderPhotos

Upload Photos

1,747,909 photos uploaded!

Nearby

Snow Depth

Station Depth Elevation
No new snow has been reported.

Earthquake Activity

City Distance Mag. Time & Date
No recent earthquake activity has been reported nearby.
Minimum magnitude displayed is 2.5.

Coastal Water Temperatures

Place Temperature
No Stations Reporting

Nearby Weather Stations